sensor_id;sensor_type;location;lat;lon;timestamp;temperature;humidity
23435;DHT22;11890;45.380;11.028;2022-07-29T00:01:41;26.30;94.40
23435;DHT22;11890;45.380;11.028;2022-07-29T00:04:09;26.30;94.00
23435;DHT22;11890;45.380;11.028;2022-07-29T00:06:37;26.20;94.40
23435;DHT22;11890;45.380;11.028;2022-07-29T00:09:05;26.30;93.80
23435;DHT22;11890;45.380;11.028;2022-07-29T00:11:33;26.30;93.50
23435;DHT22;11890;45.380;11.028;2022-07-29T00:14:00;26.30;93.80
23435;DHT22;11890;45.380;11.028;2022-07-29T00:16:28;26.30;93.80
23435;DHT22;11890;45.380;11.028;2022-07-29T00:18:55;26.30;94.00
23435;DHT22;11890;45.380;11.028;2022-07-29T00:21:28;26.40;93.30
23435;DHT22;11890;45.380;11.028;2022-07-29T00:23:55;26.40;92.90
23435;DHT22;11890;45.380;11.028;2022-07-29T00:26:23;26.40;92.80
23435;DHT22;11890;45.380;11.028;2022-07-29T00:28:50;26.40;92.80
23435;DHT22;11890;45.380;11.028;2022-07-29T00:31:17;26.40;92.90
23435;DHT22;11890;45.380;11.028;2022-07-29T00:33:45;26.30;93.00
23435;DHT22;11890;45.380;11.028;2022-07-29T00:36:12;26.20;93.00
23435;DHT22;11890;45.380;11.028;2022-07-29T00:38:40;26.10;93.30
23435;DHT22;11890;45.380;11.028;2022-07-29T00:41:11;26.20;92.90
23435;DHT22;11890;45.380;11.028;2022-07-29T00:43:39;26.20;92.90
23435;DHT22;11890;45.380;11.028;2022-07-29T00:46:06;26.20;93.20
23435;DHT22;11890;45.380;11.028;2022-07-29T00:48:34;26.20;93.30
23435;DHT22;11890;45.380;11.028;2022-07-29T00:51:03;26.20;93.80
23435;DHT22;11890;45.380;11.028;2022-07-29T00:53:32;26.10;93.20
23435;DHT22;11890;45.380;11.028;2022-07-29T00:55:59;26.20;93.70
23435;DHT22;11890;45.380;11.028;2022-07-29T00:58:27;26.20;93.80
23435;DHT22;11890;45.380;11.028;2022-07-29T01:00:54;26.20;93.60
23435;DHT22;11890;45.380;11.028;2022-07-29T01:03:22;26.10;93.60
23435;DHT22;11890;45.380;11.028;2022-07-29T01:05:50;26.10;94.10
23435;DHT22;11890;45.380;11.028;2022-07-29T01:08:18;26.20;94.10
23435;DHT22;11890;45.380;11.028;2022-07-29T01:10:46;26.20;94.70
23435;DHT22;11890;45.380;11.028;2022-07-29T01:13:15;26.20;94.70
23435;DHT22;11890;45.380;11.028;2022-07-29T01:15:46;26.20;94.50
23435;DHT22;11890;45.380;11.028;2022-07-29T01:18:22;26.20;94.00
23435;DHT22;11890;45.380;11.028;2022-07-29T01:31:48;26.10;95.60
23435;DHT22;11890;45.380;11.028;2022-07-29T01:34:47;26.10;95.90
23435;DHT22;11890;45.380;11.028;2022-07-29T01:37:29;26.10;95.70
23435;DHT22;11890;45.380;11.028;2022-07-29T01:40:00;26.10;96.10
23435;DHT22;11890;45.380;11.028;2022-07-29T01:42:44;26.10;96.00
23435;DHT22;11890;45.380;11.028;2022-07-29T01:45:38;26.00;96.30
23435;DHT22;11890;45.380;11.028;2022-07-29T01:50:49;25.90;96.80
23435;DHT22;11890;45.380;11.028;2022-07-29T01:53:29;25.90;97.10
23435;DHT22;11890;45.380;11.028;2022-07-29T01:56:06;25.90;96.80
23435;DHT22;11890;45.380;11.028;2022-07-29T01:58:39;25.90;96.90
23435;DHT22;11890;45.380;11.028;2022-07-29T02:01:09;26.00;96.80
23435;DHT22;11890;45.380;11.028;2022-07-29T02:03:39;25.90;96.80
23435;DHT22;11890;45.380;11.028;2022-07-29T02:06:11;25.90;96.80
23435;DHT22;11890;45.380;11.028;2022-07-29T02:08:40;25.80;96.90
23435;DHT22;11890;45.380;11.028;2022-07-29T02:11:08;25.90;96.90
23435;DHT22;11890;45.380;11.028;2022-07-29T02:13:37;25.80;97.00
23435;DHT22;11890;45.380;11.028;2022-07-29T02:16:06;25.80;97.50
23435;DHT22;11890;45.380;11.028;2022-07-29T02:18:37;25.80;98.00
23435;DHT22;11890;45.380;11.028;2022-07-29T02:21:07;25.80;98.50
23435;DHT22;11890;45.380;11.028;2022-07-29T02:23:43;25.70;99.10
23435;DHT22;11890;45.380;11.028;2022-07-29T02:26:18;25.70;98.80
23435;DHT22;11890;45.380;11.028;2022-07-29T02:28:48;25.70;98.90
23435;DHT22;11890;45.380;11.028;2022-07-29T02:31:17;25.70;98.90
23435;DHT22;11890;45.380;11.028;2022-07-29T02:33:47;25.70;98.90
23435;DHT22;11890;45.380;11.028;2022-07-29T02:36:15;25.80;99.10
23435;DHT22;11890;45.380;11.028;2022-07-29T02:38:44;25.70;99.10
23435;DHT22;11890;45.380;11.028;2022-07-29T02:41:29;25.70;99.30
23435;DHT22;11890;45.380;11.028;2022-07-29T02:44:03;25.70;99.50
23435;DHT22;11890;45.380;11.028;2022-07-29T02:46:34;25.50;99.60
23435;DHT22;11890;45.380;11.028;2022-07-29T02:49:16;25.50;99.70
23435;DHT22;11890;45.380;11.028;2022-07-29T02:52:18;25.50;99.90
23435;DHT22;11890;45.380;11.028;2022-07-29T02:57:41;25.30;99.90
23435;DHT22;11890;45.380;11.028;2022-07-29T03:00:24;25.30;99.90
23435;DHT22;11890;45.380;11.028;2022-07-29T03:02:54;25.30;99.90
23435;DHT22;11890;45.380;11.028;2022-07-29T03:05:24;25.30;99.90
23435;DHT22;11890;45.380;11.028;2022-07-29T03:08:03;25.30;99.90
23435;DHT22;11890;45.380;11.028;2022-07-29T03:10:31;25.30;99.90
23435;DHT22;11890;45.380;11.028;2022-07-29T03:13:00;25.20;99.90
23435;DHT22;11890;45.380;11.028;2022-07-29T03:15:28;25.10;99.90
23435;DHT22;11890;45.380;11.028;2022-07-29T03:17:56;25.10;99.90
23435;DHT22;11890;45.380;11.028;2022-07-29T03:20:27;25.10;99.90
23435;DHT22;11890;45.380;11.028;2022-07-29T03:22:54;25.10;99.90
23435;DHT22;11890;45.380;11.028;2022-07-29T03:25:22;25.00;99.90
23435;DHT22;11890;45.380;11.028;2022-07-29T03:27:49;25.00;99.90
23435;DHT22;11890;45.380;11.028;2022-07-29T03:30:17;25.00;99.90
23435;DHT22;11890;45.380;11.028;2022-07-29T03:32:50;25.10;99.90
23435;DHT22;11890;45.380;11.028;2022-07-29T03:35:19;25.10;99.90
23435;DHT22;11890;45.380;11.028;2022-07-29T03:37:47;25.10;99.90
23435;DHT22;11890;45.380;11.028;2022-07-29T03:40:21;25.10;99.90
23435;DHT22;11890;45.380;11.028;2022-07-29T03:42:50;25.10;99.90
23435;DHT22;11890;45.380;11.028;2022-07-29T03:45:19;25.10;99.90
23435;DHT22;11890;45.380;11.028;2022-07-29T03:47:51;25.10;99.90
23435;DHT22;11890;45.380;11.028;2022-07-29T03:50:28;25.00;99.90
23435;DHT22;11890;45.380;11.028;2022-07-29T03:52:56;25.10;99.90
23435;DHT22;11890;45.380;11.028;2022-07-29T03:55:25;25.00;99.90
23435;DHT22;11890;45.380;11.028;2022-07-29T03:57:53;25.00;99.90
23435;DHT22;11890;45.380;11.028;2022-07-29T04:00:24;25.00;99.90
23435;DHT22;11890;45.380;11.028;2022-07-29T04:02:52;25.00;99.90
23435;DHT22;11890;45.380;11.028;2022-07-29T04:05:20;25.10;99.90
23435;DHT22;11890;45.380;11.028;2022-07-29T04:07:48;25.10;99.90
23435;DHT22;11890;45.380;11.028;2022-07-29T04:10:16;25.10;99.90
23435;DHT22;11890;45.380;11.028;2022-07-29T04:12:58;25.20;99.90
23435;DHT22;11890;45.380;11.028;2022-07-29T04:15:26;25.10;99.90
23435;DHT22;11890;45.380;11.028;2022-07-29T04:17:58;25.10;99.90
23435;DHT22;11890;45.380;11.028;2022-07-29T04:20:26;25.00;99.90
23435;DHT22;11890;45.380;11.028;2022-07-29T04:22:54;25.00;99.90
23435;DHT22;11890;45.380;11.028;2022-07-29T04:25:21;25.00;99.90
23435;DHT22;11890;45.380;11.028;2022-07-29T04:27:49;25.00;99.90
23435;DHT22;11890;45.380;11.028;2022-07-29T04:30:29;25.00;99.90
23435;DHT22;11890;45.380;11.028;2022-07-29T04:32:58;25.10;99.90
23435;DHT22;11890;45.380;11.028;2022-07-29T04:35:26;25.20;99.90
23435;DHT22;11890;45.380;11.028;2022-07-29T04:37:53;25.10;99.90
23435;DHT22;11890;45.380;11.028;2022-07-29T04:40:21;25.10;99.90
23435;DHT22;11890;45.380;11.028;2022-07-29T04:42:48;25.10;99.90
23435;DHT22;11890;45.380;11.028;2022-07-29T04:45:16;25.10;99.90
23435;DHT22;11890;45.380;11.028;2022-07-29T04:47:49;25.10;99.90
23435;DHT22;11890;45.380;11.028;2022-07-29T04:50:16;25.00;99.90
23435;DHT22;11890;45.380;11.028;2022-07-29T04:52:44;25.10;99.90
23435;DHT22;11890;45.380;11.028;2022-07-29T04:55:11;25.10;99.90
23435;DHT22;11890;45.380;11.028;2022-07-29T04:57:39;25.10;99.90
23435;DHT22;11890;45.380;11.028;2022-07-29T05:00:07;25.20;99.90
23435;DHT22;11890;45.380;11.028;2022-07-29T05:02:35;25.20;99.90
23435;DHT22;11890;45.380;11.028;2022-07-29T05:05:02;25.20;99.90
23435;DHT22;11890;45.380;11.028;2022-07-29T05:07:30;25.10;99.90
23435;DHT22;11890;45.380;11.028;2022-07-29T05:09:57;25.10;99.90
23435;DHT22;11890;45.380;11.028;2022-07-29T05:12:25;25.00;99.90
23435;DHT22;11890;45.380;11.028;2022-07-29T05:14:53;25.10;99.90
23435;DHT22;11890;45.380;11.028;2022-07-29T05:17:20;25.10;99.90
23435;DHT22;11890;45.380;11.028;2022-07-29T05:19:48;25.20;99.90
23435;DHT22;11890;45.380;11.028;2022-07-29T05:22:15;25.20;99.90
23435;DHT22;11890;45.380;11.028;2022-07-29T05:24:42;25.40;99.90
23435;DHT22;11890;45.380;11.028;2022-07-29T05:27:10;25.40;99.90
23435;DHT22;11890;45.380;11.028;2022-07-29T05:29:37;25.50;99.90
23435;DHT22;11890;45.380;11.028;2022-07-29T05:32:12;25.50;99.90
23435;DHT22;11890;45.380;11.028;2022-07-29T05:34:40;25.50;99.90
23435;DHT22;11890;45.380;11.028;2022-07-29T05:37:19;25.60;99.90
23435;DHT22;11890;45.380;11.028;2022-07-29T05:39:46;25.60;99.90
23435;DHT22;11890;45.380;11.028;2022-07-29T05:42:22;25.60;99.90
23435;DHT22;11890;45.380;11.028;2022-07-29T05:44:49;25.70;99.90
23435;DHT22;11890;45.380;11.028;2022-07-29T05:47:18;25.70;99.90
23435;DHT22;11890;45.380;11.028;2022-07-29T05:49:45;25.80;99.90
23435;DHT22;11890;45.380;11.028;2022-07-29T05:52:13;25.80;99.90
23435;DHT22;11890;45.380;11.028;2022-07-29T05:54:41;25.90;99.90
23435;DHT22;11890;45.380;11.028;2022-07-29T05:57:08;25.80;99.90
23435;DHT22;11890;45.380;11.028;2022-07-29T05:59:41;26.00;99.90
23435;DHT22;11890;45.380;11.028;2022-07-29T06:02:09;25.90;99.90
23435;DHT22;11890;45.380;11.028;2022-07-29T06:04:36;25.90;99.90
23435;DHT22;11890;45.380;11.028;2022-07-29T06:07:04;26.00;99.90
23435;DHT22;11890;45.380;11.028;2022-07-29T06:09:32;25.90;99.90
23435;DHT22;11890;45.380;11.028;2022-07-29T06:12:02;25.90;99.90
23435;DHT22;11890;45.380;11.028;2022-07-29T06:14:30;25.80;99.90
23435;DHT22;11890;45.380;11.028;2022-07-29T06:16:57;25.80;99.90
23435;DHT22;11890;45.380;11.028;2022-07-29T06:19:25;25.80;99.90
23435;DHT22;11890;45.380;11.028;2022-07-29T06:21:53;25.70;99.90
23435;DHT22;11890;45.380;11.028;2022-07-29T06:24:20;25.70;99.90
23435;DHT22;11890;45.380;11.028;2022-07-29T06:26:48;25.70;99.90
23435;DHT22;11890;45.380;11.028;2022-07-29T06:29:15;25.80;99.90
23435;DHT22;11890;45.380;11.028;2022-07-29T06:31:42;25.70;99.90
23435;DHT22;11890;45.380;11.028;2022-07-29T06:34:10;25.80;99.90
23435;DHT22;11890;45.380;11.028;2022-07-29T06:36:37;25.90;99.90
23435;DHT22;11890;45.380;11.028;2022-07-29T06:39:07;25.90;99.90
23435;DHT22;11890;45.380;11.028;2022-07-29T06:41:35;26.00;99.90
23435;DHT22;11890;45.380;11.028;2022-07-29T06:44:09;26.10;99.90
23435;DHT22;11890;45.380;11.028;2022-07-29T06:46:36;26.10;99.90
23435;DHT22;11890;45.380;11.028;2022-07-29T06:49:04;26.20;99.90
23435;DHT22;11890;45.380;11.028;2022-07-29T06:51:32;26.30;99.90
23435;DHT22;11890;45.380;11.028;2022-07-29T06:54:00;26.40;99.90
23435;DHT22;11890;45.380;11.028;2022-07-29T06:56:34;26.40;99.90
23435;DHT22;11890;45.380;11.028;2022-07-29T06:59:08;26.50;99.90
23435;DHT22;11890;45.380;11.028;2022-07-29T07:01:40;26.60;99.90
23435;DHT22;11890;45.380;11.028;2022-07-29T07:04:09;26.60;99.90
23435;DHT22;11890;45.380;11.028;2022-07-29T07:06:36;26.80;99.90
23435;DHT22;11890;45.380;11.028;2022-07-29T07:09:05;26.80;99.90
23435;DHT22;11890;45.380;11.028;2022-07-29T07:11:32;26.90;99.90
23435;DHT22;11890;45.380;11.028;2022-07-29T07:14:00;26.90;99.90
23435;DHT22;11890;45.380;11.028;2022-07-29T07:16:31;26.90;99.80
23435;DHT22;11890;45.380;11.028;2022-07-29T07:18:59;27.00;99.90
23435;DHT22;11890;45.380;11.028;2022-07-29T07:21:27;27.10;99.10
23435;DHT22;11890;45.380;11.028;2022-07-29T07:23:57;27.00;99.50
23435;DHT22;11890;45.380;11.028;2022-07-29T07:26:24;27.10;99.30
23435;DHT22;11890;45.380;11.028;2022-07-29T07:28:52;27.00;98.90
23435;DHT22;11890;45.380;11.028;2022-07-29T07:31:20;27.10;98.90
23435;DHT22;11890;45.380;11.028;2022-07-29T07:33:47;27.20;98.70
23435;DHT22;11890;45.380;11.028;2022-07-29T07:36:15;27.30;98.40
23435;DHT22;11890;45.380;11.028;2022-07-29T07:38:42;27.40;98.30
23435;DHT22;11890;45.380;11.028;2022-07-29T07:41:10;27.40;98.30
23435;DHT22;11890;45.380;11.028;2022-07-29T07:43:37;27.40;98.30
23435;DHT22;11890;45.380;11.028;2022-07-29T07:46:05;27.50;98.10
23435;DHT22;11890;45.380;11.028;2022-07-29T07:48:32;27.60;98.00
23435;DHT22;11890;45.380;11.028;2022-07-29T07:51:01;27.60;96.90
23435;DHT22;11890;45.380;11.028;2022-07-29T07:53:29;27.70;96.50
23435;DHT22;11890;45.380;11.028;2022-07-29T07:55:58;27.80;96.40
23435;DHT22;11890;45.380;11.028;2022-07-29T07:58:41;27.90;96.20
23435;DHT22;11890;45.380;11.028;2022-07-29T08:01:09;27.90;96.20
23435;DHT22;11890;45.380;11.028;2022-07-29T08:03:37;28.10;96.20
23435;DHT22;11890;45.380;11.028;2022-07-29T08:06:05;28.20;95.70
23435;DHT22;11890;45.380;11.028;2022-07-29T08:08:32;28.20;95.50
23435;DHT22;11890;45.380;11.028;2022-07-29T08:11:00;28.30;94.70
23435;DHT22;11890;45.380;11.028;2022-07-29T08:13:36;28.30;94.50
23435;DHT22;11890;45.380;11.028;2022-07-29T08:16:06;28.40;94.80
23435;DHT22;11890;45.380;11.028;2022-07-29T08:18:42;28.50;94.10
23435;DHT22;11890;45.380;11.028;2022-07-29T08:21:10;28.50;94.00
23435;DHT22;11890;45.380;11.028;2022-07-29T08:23:43;28.50;94.50
23435;DHT22;11890;45.380;11.028;2022-07-29T08:26:24;28.70;94.00
23435;DHT22;11890;45.380;11.028;2022-07-29T08:28:51;28.70;93.40
23435;DHT22;11890;45.380;11.028;2022-07-29T08:31:18;28.70;93.40
23435;DHT22;11890;45.380;11.028;2022-07-29T08:33:46;28.90;93.80
23435;DHT22;11890;45.380;11.028;2022-07-29T08:36:13;29.00;92.40
23435;DHT22;11890;45.380;11.028;2022-07-29T08:38:41;29.20;92.70
23435;DHT22;11890;45.380;11.028;2022-07-29T08:41:08;29.30;92.60
23435;DHT22;11890;45.380;11.028;2022-07-29T08:43:36;29.30;92.90
23435;DHT22;11890;45.380;11.028;2022-07-29T08:46:05;29.30;93.20
23435;DHT22;11890;45.380;11.028;2022-07-29T08:48:33;29.40;92.10
23435;DHT22;11890;45.380;11.028;2022-07-29T08:51:01;29.40;92.10
23435;DHT22;11890;45.380;11.028;2022-07-29T08:53:30;29.50;92.30
23435;DHT22;11890;45.380;11.028;2022-07-29T08:55:59;29.60;91.90
23435;DHT22;11890;45.380;11.028;2022-07-29T08:58:29;29.70;92.10
23435;DHT22;11890;45.380;11.028;2022-07-29T09:01:03;29.70;90.60
23435;DHT22;11890;45.380;11.028;2022-07-29T09:03:36;29.70;91.10
23435;DHT22;11890;45.380;11.028;2022-07-29T09:06:04;29.80;91.30
23435;DHT22;11890;45.380;11.028;2022-07-29T09:08:32;29.90;91.80
23435;DHT22;11890;45.380;11.028;2022-07-29T09:11:02;30.00;91.50
23435;DHT22;11890;45.380;11.028;2022-07-29T09:13:32;30.10;91.30
23435;DHT22;11890;45.380;11.028;2022-07-29T09:16:00;30.20;90.70
23435;DHT22;11890;45.380;11.028;2022-07-29T09:18:43;30.20;90.70
23435;DHT22;11890;45.380;11.028;2022-07-29T09:21:12;30.30;89.50
23435;DHT22;11890;45.380;11.028;2022-07-29T09:24:07;30.30;89.40
23435;DHT22;11890;45.380;11.028;2022-07-29T09:26:38;30.30;90.00
23435;DHT22;11890;45.380;11.028;2022-07-29T09:29:16;30.40;87.90
23435;DHT22;11890;45.380;11.028;2022-07-29T09:31:46;30.40;87.10
23435;DHT22;11890;45.380;11.028;2022-07-29T09:34:16;30.50;87.30
23435;DHT22;11890;45.380;11.028;2022-07-29T09:36:46;30.60;86.10
23435;DHT22;11890;45.380;11.028;2022-07-29T09:39:14;30.60;85.70
23435;DHT22;11890;45.380;11.028;2022-07-29T09:41:52;30.70;85.00
23435;DHT22;11890;45.380;11.028;2022-07-29T09:44:21;30.80;84.30
23435;DHT22;11890;45.380;11.028;2022-07-29T09:47:03;30.90;86.00
23435;DHT22;11890;45.380;11.028;2022-07-29T09:50:03;31.00;84.60
23435;DHT22;11890;45.380;11.028;2022-07-29T09:52:30;31.00;83.40
23435;DHT22;11890;45.380;11.028;2022-07-29T09:55:05;31.00;83.70
23435;DHT22;11890;45.380;11.028;2022-07-29T09:57:33;31.00;84.10
23435;DHT22;11890;45.380;11.028;2022-07-29T10:00:09;31.00;83.00
23435;DHT22;11890;45.380;11.028;2022-07-29T10:02:41;31.10;82.80
23435;DHT22;11890;45.380;11.028;2022-07-29T10:07:57;31.20;82.80
23435;DHT22;11890;45.380;11.028;2022-07-29T10:12:59;31.40;83.20
23435;DHT22;11890;45.380;11.028;2022-07-29T10:15:36;31.50;83.20
23435;DHT22;11890;45.380;11.028;2022-07-29T10:18:06;31.60;82.00
23435;DHT22;11890;45.380;11.028;2022-07-29T10:20:34;31.70;81.90
23435;DHT22;11890;45.380;11.028;2022-07-29T10:23:02;31.80;81.70
23435;DHT22;11890;45.380;11.028;2022-07-29T10:25:30;31.90;81.20
23435;DHT22;11890;45.380;11.028;2022-07-29T10:27:58;32.00;80.40
23435;DHT22;11890;45.380;11.028;2022-07-29T10:30:26;32.00;79.30
23435;DHT22;11890;45.380;11.028;2022-07-29T10:44:05;32.10;80.40
23435;DHT22;11890;45.380;11.028;2022-07-29T10:46:38;32.30;80.10
23435;DHT22;11890;45.380;11.028;2022-07-29T10:49:24;32.30;80.70
23435;DHT22;11890;45.380;11.028;2022-07-29T10:52:00;32.50;79.00
23435;DHT22;11890;45.380;11.028;2022-07-29T10:57:23;32.50;79.00
23435;DHT22;11890;45.380;11.028;2022-07-29T11:02:44;32.70;79.10
23435;DHT22;11890;45.380;11.028;2022-07-29T11:05:17;32.80;78.10
23435;DHT22;11890;45.380;11.028;2022-07-29T11:10:51;32.90;78.10
23435;DHT22;11890;45.380;11.028;2022-07-29T11:16:15;32.90;78.50
23435;DHT22;11890;45.380;11.028;2022-07-29T11:19:18;33.00;78.60
23435;DHT22;11890;45.380;11.028;2022-07-29T11:21:56;33.00;77.20
23435;DHT22;11890;45.380;11.028;2022-07-29T11:24:28;33.10;76.60
23435;DHT22;11890;45.380;11.028;2022-07-29T11:27:14;33.20;76.90
23435;DHT22;11890;45.380;11.028;2022-07-29T11:29:55;33.30;76.00
23435;DHT22;11890;45.380;11.028;2022-07-29T11:32:25;33.30;76.30
23435;DHT22;11890;45.380;11.028;2022-07-29T11:35:20;33.40;76.90
23435;DHT22;11890;45.380;11.028;2022-07-29T11:38:25;33.50;77.10
23435;DHT22;11890;45.380;11.028;2022-07-29T11:43:56;33.50;75.60
23435;DHT22;11890;45.380;11.028;2022-07-29T11:49:23;33.60;75.30
23435;DHT22;11890;45.380;11.028;2022-07-29T11:52:00;33.60;75.30
23435;DHT22;11890;45.380;11.028;2022-07-29T11:54:34;33.60;74.70
23435;DHT22;11890;45.380;11.028;2022-07-29T11:57:21;33.50;76.10
23435;DHT22;11890;45.380;11.028;2022-07-29T12:00:07;33.50;74.50
23435;DHT22;11890;45.380;11.028;2022-07-29T12:02:41;33.50;74.20
23435;DHT22;11890;45.380;11.028;2022-07-29T12:05:15;33.50;73.80
23435;DHT22;11890;45.380;11.028;2022-07-29T12:10:41;33.60;73.90
23435;DHT22;11890;45.380;11.028;2022-07-29T12:13:10;33.70;74.50
23435;DHT22;11890;45.380;11.028;2022-07-29T12:15:39;33.80;74.60
23435;DHT22;11890;45.380;11.028;2022-07-29T12:18:18;33.70;74.60
23435;DHT22;11890;45.380;11.028;2022-07-29T12:20:57;33.80;74.20
23435;DHT22;11890;45.380;11.028;2022-07-29T12:23:30;33.90;74.90
23435;DHT22;11890;45.380;11.028;2022-07-29T12:26:05;33.80;73.30
23435;DHT22;11890;45.380;11.028;2022-07-29T12:28:37;33.90;73.60
23435;DHT22;11890;45.380;11.028;2022-07-29T12:31:05;33.90;74.10
23435;DHT22;11890;45.380;11.028;2022-07-29T12:33:34;34.10;74.40
23435;DHT22;11890;45.380;11.028;2022-07-29T12:36:02;34.10;73.50
23435;DHT22;11890;45.380;11.028;2022-07-29T12:38:37;34.10;73.70
23435;DHT22;11890;45.380;11.028;2022-07-29T12:41:07;34.10;73.20
23435;DHT22;11890;45.380;11.028;2022-07-29T12:43:34;34.10;73.70
23435;DHT22;11890;45.380;11.028;2022-07-29T12:46:15;34.10;73.30
23435;DHT22;11890;45.380;11.028;2022-07-29T12:48:43;34.10;73.30
23435;DHT22;11890;45.380;11.028;2022-07-29T12:51:11;34.10;72.90
23435;DHT22;11890;45.380;11.028;2022-07-29T12:53:41;34.20;71.20
23435;DHT22;11890;45.380;11.028;2022-07-29T12:56:28;34.20;71.40
23435;DHT22;11890;45.380;11.028;2022-07-29T12:59:25;34.20;72.20
23435;DHT22;11890;45.380;11.028;2022-07-29T13:01:52;34.20;72.50
23435;DHT22;11890;45.380;11.028;2022-07-29T13:04:31;34.10;71.80
23435;DHT22;11890;45.380;11.028;2022-07-29T13:07:05;34.00;72.40
23435;DHT22;11890;45.380;11.028;2022-07-29T13:09:41;34.00;72.80
23435;DHT22;11890;45.380;11.028;2022-07-29T13:12:11;34.10;72.80
23435;DHT22;11890;45.380;11.028;2022-07-29T13:14:44;34.20;72.10
23435;DHT22;11890;45.380;11.028;2022-07-29T13:17:17;34.20;72.40
23435;DHT22;11890;45.380;11.028;2022-07-29T13:19:50;34.30;72.10
23435;DHT22;11890;45.380;11.028;2022-07-29T13:22:24;34.40;72.80
23435;DHT22;11890;45.380;11.028;2022-07-29T13:24:54;34.50;72.20
23435;DHT22;11890;45.380;11.028;2022-07-29T13:27:24;34.40;71.50
23435;DHT22;11890;45.380;11.028;2022-07-29T13:29:52;34.30;72.50
23435;DHT22;11890;45.380;11.028;2022-07-29T13:32:20;34.30;72.30
23435;DHT22;11890;45.380;11.028;2022-07-29T13:34:56;34.40;72.60
23435;DHT22;11890;45.380;11.028;2022-07-29T13:37:24;34.40;71.90
23435;DHT22;11890;45.380;11.028;2022-07-29T13:39:51;34.40;71.00
23435;DHT22;11890;45.380;11.028;2022-07-29T13:42:22;34.40;70.60
23435;DHT22;11890;45.380;11.028;2022-07-29T13:44:49;34.40;71.60
23435;DHT22;11890;45.380;11.028;2022-07-29T13:47:22;34.40;72.40
23435;DHT22;11890;45.380;11.028;2022-07-29T13:50:00;34.40;72.30
23435;DHT22;11890;45.380;11.028;2022-07-29T13:52:28;34.60;72.60
23435;DHT22;11890;45.380;11.028;2022-07-29T13:54:56;34.60;71.50
23435;DHT22;11890;45.380;11.028;2022-07-29T13:57:24;34.80;70.90
23435;DHT22;11890;45.380;11.028;2022-07-29T13:59:51;34.80;70.90
23435;DHT22;11890;45.380;11.028;2022-07-29T14:02:21;34.90;70.90
23435;DHT22;11890;45.380;11.028;2022-07-29T14:04:54;34.70;71.20
23435;DHT22;11890;45.380;11.028;2022-07-29T14:07:22;34.60;71.60
23435;DHT22;11890;45.380;11.028;2022-07-29T14:09:50;34.50;71.40
23435;DHT22;11890;45.380;11.028;2022-07-29T14:12:17;34.30;70.80
23435;DHT22;11890;45.380;11.028;2022-07-29T14:14:45;34.00;70.40
23435;DHT22;11890;45.380;11.028;2022-07-29T14:17:14;33.80;72.00
23435;DHT22;11890;45.380;11.028;2022-07-29T14:19:41;33.70;70.80
23435;DHT22;11890;45.380;11.028;2022-07-29T14:22:09;33.50;70.90
23435;DHT22;11890;45.380;11.028;2022-07-29T14:24:38;33.50;71.60
23435;DHT22;11890;45.380;11.028;2022-07-29T14:27:06;33.30;70.70
23435;DHT22;11890;45.380;11.028;2022-07-29T14:29:34;33.20;72.20
23435;DHT22;11890;45.380;11.028;2022-07-29T14:32:05;33.20;74.80
23435;DHT22;11890;45.380;11.028;2022-07-29T14:34:35;33.10;74.00
23435;DHT22;11890;45.380;11.028;2022-07-29T14:37:03;33.10;73.50
23435;DHT22;11890;45.380;11.028;2022-07-29T14:39:33;33.00;74.40
23435;DHT22;11890;45.380;11.028;2022-07-29T14:42:09;33.00;74.50
23435;DHT22;11890;45.380;11.028;2022-07-29T14:44:39;32.90;74.50
23435;DHT22;11890;45.380;11.028;2022-07-29T14:47:09;32.70;75.30
23435;DHT22;11890;45.380;11.028;2022-07-29T14:49:36;32.70;74.20
23435;DHT22;11890;45.380;11.028;2022-07-29T14:52:04;32.60;73.40
23435;DHT22;11890;45.380;11.028;2022-07-29T14:54:31;32.60;74.10
23435;DHT22;11890;45.380;11.028;2022-07-29T14:56:59;32.50;76.00
23435;DHT22;11890;45.380;11.028;2022-07-29T14:59:26;32.40;76.40
23435;DHT22;11890;45.380;11.028;2022-07-29T15:01:54;32.40;77.40
23435;DHT22;11890;45.380;11.028;2022-07-29T15:04:22;32.30;77.60
23435;DHT22;11890;45.380;11.028;2022-07-29T15:06:49;32.20;77.20
23435;DHT22;11890;45.380;11.028;2022-07-29T15:09:17;32.10;78.50
23435;DHT22;11890;45.380;11.028;2022-07-29T15:11:45;32.10;77.80
23435;DHT22;11890;45.380;11.028;2022-07-29T15:14:12;32.00;78.20
23435;DHT22;11890;45.380;11.028;2022-07-29T15:16:39;32.00;78.20
23435;DHT22;11890;45.380;11.028;2022-07-29T15:19:13;31.90;78.80
23435;DHT22;11890;45.380;11.028;2022-07-29T15:21:40;31.90;79.00
23435;DHT22;11890;45.380;11.028;2022-07-29T15:24:18;31.80;79.20
23435;DHT22;11890;45.380;11.028;2022-07-29T15:26:46;31.80;79.70
23435;DHT22;11890;45.380;11.028;2022-07-29T15:29:14;31.80;79.30
23435;DHT22;11890;45.380;11.028;2022-07-29T15:31:42;31.70;79.60
23435;DHT22;11890;45.380;11.028;2022-07-29T15:34:10;31.70;79.60
23435;DHT22;11890;45.380;11.028;2022-07-29T15:36:37;31.60;79.70
23435;DHT22;11890;45.380;11.028;2022-07-29T15:39:21;31.60;80.50
23435;DHT22;11890;45.380;11.028;2022-07-29T15:41:49;31.50;80.80
23435;DHT22;11890;45.380;11.028;2022-07-29T15:44:17;31.40;81.00
23435;DHT22;11890;45.380;11.028;2022-07-29T15:46:48;31.40;81.80
23435;DHT22;11890;45.380;11.028;2022-07-29T15:49:32;31.30;82.10
23435;DHT22;11890;45.380;11.028;2022-07-29T15:52:18;31.30;82.60
23435;DHT22;11890;45.380;11.028;2022-07-29T15:54:56;31.30;82.60
23435;DHT22;11890;45.380;11.028;2022-07-29T15:57:24;31.30;83.10
23435;DHT22;11890;45.380;11.028;2022-07-29T15:59:51;31.20;83.70
23435;DHT22;11890;45.380;11.028;2022-07-29T16:02:19;31.20;84.80
23435;DHT22;11890;45.380;11.028;2022-07-29T16:04:46;31.20;85.40
23435;DHT22;11890;45.380;11.028;2022-07-29T16:07:14;31.10;86.10
23435;DHT22;11890;45.380;11.028;2022-07-29T16:09:43;31.00;89.40
23435;DHT22;11890;45.380;11.028;2022-07-29T16:12:17;30.90;90.60
23435;DHT22;11890;45.380;11.028;2022-07-29T16:14:44;30.80;90.70
23435;DHT22;11890;45.380;11.028;2022-07-29T16:17:12;30.70;91.90
23435;DHT22;11890;45.380;11.028;2022-07-29T16:19:42;30.60;92.30
23435;DHT22;11890;45.380;11.028;2022-07-29T16:22:10;30.60;93.60
23435;DHT22;11890;45.380;11.028;2022-07-29T16:24:38;30.50;93.30
23435;DHT22;11890;45.380;11.028;2022-07-29T16:27:05;30.50;92.90
23435;DHT22;11890;45.380;11.028;2022-07-29T16:29:33;30.40;93.80
23435;DHT22;11890;45.380;11.028;2022-07-29T16:32:04;30.20;93.90